sensor_id;sensor_type;location;lat;lon;timestamp;pressure;altitude;pressure_sealevel;temperature;humidity
20620;BME280;10469;42.720;23.252;2023-02-23T00:00:28;94724.22;;;7.50;100.00
20620;BME280;10469;42.720;23.252;2023-02-23T00:02:58;94727.13;;;7.48;100.00
20620;BME280;10469;42.720;23.252;2023-02-23T00:05:29;94722.38;;;7.50;100.00
20620;BME280;10469;42.720;23.252;2023-02-23T00:07:55;94723.19;;;7.51;100.00
20620;BME280;10469;42.720;23.252;2023-02-23T00:10:21;94731.28;;;7.19;100.00
20620;BME280;10469;42.720;23.252;2023-02-23T00:12:57;94720.31;;;7.09;100.00
20620;BME280;10469;42.720;23.252;2023-02-23T00:15:25;94714.22;;;7.02;100.00
20620;BME280;10469;42.720;23.252;2023-02-23T00:17:54;94733.03;;;7.07;100.00
20620;BME280;10469;42.720;23.252;2023-02-23T00:20:21;94730.69;;;7.17;100.00
20620;BME280;10469;42.720;23.252;2023-02-23T00:22:53;94727.38;;;6.97;100.00
20620;BME280;10469;42.720;23.252;2023-02-23T00:25:19;94732.59;;;6.85;100.00
20620;BME280;10469;42.720;23.252;2023-02-23T00:27:44;94742.56;;;6.96;100.00
20620;BME280;10469;42.720;23.252;2023-02-23T00:30:11;94726.13;;;6.99;100.00
20620;BME280;10469;42.720;23.252;2023-02-23T00:32:37;94729.13;;;6.85;100.00
20620;BME280;10469;42.720;23.252;2023-02-23T00:35:03;94737.06;;;6.91;100.00
20620;BME280;10469;42.720;23.252;2023-02-23T00:37:28;94736.53;;;6.83;100.00
20620;BME280;10469;42.720;23.252;2023-02-23T00:39:54;94736.56;;;6.76;100.00
20620;BME280;10469;42.720;23.252;2023-02-23T00:42:22;94731.97;;;6.58;100.00
20620;BME280;10469;42.720;23.252;2023-02-23T00:44:48;94737.53;;;6.57;100.00
20620;BME280;10469;42.720;23.252;2023-02-23T00:47:13;94737.28;;;6.58;100.00
20620;BME280;10469;42.720;23.252;2023-02-23T00:49:39;94733.50;;;6.41;100.00
20620;BME280;10469;42.720;23.252;2023-02-23T00:52:05;94736.75;;;6.43;100.00
20620;BME280;10469;42.720;23.252;2023-02-23T00:54:30;94730.50;;;6.31;100.00
20620;BME280;10469;42.720;23.252;2023-02-23T00:56:55;94724.41;;;6.17;100.00
20620;BME280;10469;42.720;23.252;2023-02-23T00:59:21;94738.53;;;6.17;100.00
20620;BME280;10469;42.720;23.252;2023-02-23T01:01:47;94741.03;;;6.12;100.00
20620;BME280;10469;42.720;23.252;2023-02-23T01:04:13;94721.25;;;5.88;100.00
20620;BME280;10469;42.720;23.252;2023-02-23T01:06:39;94719.78;;;5.99;100.00
20620;BME280;10469;42.720;23.252;2023-02-23T01:09:07;94742.72;;;6.00;100.00
20620;BME280;10469;42.720;23.252;2023-02-23T01:11:33;94728.41;;;5.94;100.00
20620;BME280;10469;42.720;23.252;2023-02-23T01:13:59;94741.09;;;5.99;100.00
20620;BME280;10469;42.720;23.252;2023-02-23T01:16:28;94739.88;;;5.95;100.00
20620;BME280;10469;42.720;23.252;2023-02-23T01:18:56;94728.63;;;5.86;100.00
20620;BME280;10469;42.720;23.252;2023-02-23T01:21:27;94732.94;;;5.87;100.00
20620;BME280;10469;42.720;23.252;2023-02-23T01:23:53;94726.00;;;5.79;100.00
20620;BME280;10469;42.720;23.252;2023-02-23T01:26:23;94733.53;;;5.89;100.00
20620;BME280;10469;42.720;23.252;2023-02-23T01:28:53;94733.75;;;5.88;100.00
20620;BME280;10469;42.720;23.252;2023-02-23T01:31:21;94728.84;;;5.85;100.00
20620;BME280;10469;42.720;23.252;2023-02-23T01:33:47;94722.09;;;5.82;100.00
20620;BME280;10469;42.720;23.252;2023-02-23T01:36:13;94731.31;;;5.79;100.00
20620;BME280;10469;42.720;23.252;2023-02-23T01:38:39;94741.16;;;5.72;100.00
20620;BME280;10469;42.720;23.252;2023-02-23T01:41:05;94737.84;;;5.84;100.00
20620;BME280;10469;42.720;23.252;2023-02-23T01:43:31;94731.13;;;5.74;100.00
20620;BME280;10469;42.720;23.252;2023-02-23T01:45:57;94728.53;;;5.54;100.00
20620;BME280;10469;42.720;23.252;2023-02-23T01:48:26;94743.19;;;5.77;100.00
20620;BME280;10469;42.720;23.252;2023-02-23T01:51:08;94733.44;;;5.58;100.00
20620;BME280;10469;42.720;23.252;2023-02-23T01:53:39;94729.34;;;5.55;100.00
20620;BME280;10469;42.720;23.252;2023-02-23T01:56:09;94736.69;;;5.66;100.00
20620;BME280;10469;42.720;23.252;2023-02-23T01:58:38;94735.25;;;5.70;100.00
20620;BME280;10469;42.720;23.252;2023-02-23T02:01:04;94726.47;;;5.63;100.00
20620;BME280;10469;42.720;23.252;2023-02-23T02:03:38;94739.97;;;5.62;100.00
20620;BME280;10469;42.720;23.252;2023-02-23T02:06:06;94735.66;;;5.61;100.00
20620;BME280;10469;42.720;23.252;2023-02-23T02:08:37;94735.06;;;5.59;100.00
20620;BME280;10469;42.720;23.252;2023-02-23T02:11:10;94725.59;;;5.69;100.00
20620;BME280;10469;42.720;23.252;2023-02-23T02:13:52;94724.44;;;5.52;100.00
20620;BME280;10469;42.720;23.252;2023-02-23T02:28:10;94742.53;;;4.90;100.00
20620;BME280;10469;42.720;23.252;2023-02-23T02:47:05;94727.19;;;4.66;100.00
20620;BME280;10469;42.720;23.252;2023-02-23T02:55:15;94729.03;;;4.92;100.00
20620;BME280;10469;42.720;23.252;2023-02-23T02:57:44;94724.53;;;4.86;100.00
20620;BME280;10469;42.720;23.252;2023-02-23T03:00:17;94729.84;;;4.79;100.00
20620;BME280;10469;42.720;23.252;2023-02-23T03:03:02;94726.16;;;4.73;100.00
20620;BME280;10469;42.720;23.252;2023-02-23T03:05:50;94719.63;;;4.69;100.00
20620;BME280;10469;42.720;23.252;2023-02-23T03:09:02;94715.94;;;4.70;100.00
20620;BME280;10469;42.720;23.252;2023-02-23T03:18:17;94727.97;;;4.53;100.00
20620;BME280;10469;42.720;23.252;2023-02-23T03:21:15;94736.16;;;4.65;100.00
20620;BME280;10469;42.720;23.252;2023-02-23T03:24:50;94740.03;;;4.49;100.00
20620;BME280;10469;42.720;23.252;2023-02-23T03:30:50;94744.31;;;4.43;100.00
20620;BME280;10469;42.720;23.252;2023-02-23T03:37:26;94745.75;;;4.46;100.00
20620;BME280;10469;42.720;23.252;2023-02-23T03:40:17;94746.56;;;4.33;100.00
20620;BME280;10469;42.720;23.252;2023-02-23T03:43:06;94744.88;;;4.19;100.00
20620;BME280;10469;42.720;23.252;2023-02-23T03:45:54;94754.91;;;4.30;100.00
20620;BME280;10469;42.720;23.252;2023-02-23T03:48:42;94756.16;;;4.41;100.00
20620;BME280;10469;42.720;23.252;2023-02-23T03:51:32;94761.69;;;4.52;100.00
20620;BME280;10469;42.720;23.252;2023-02-23T03:54:58;94764.91;;;4.35;100.00
20620;BME280;10469;42.720;23.252;2023-02-23T03:57:46;94760.00;;;4.25;100.00
20620;BME280;10469;42.720;23.252;2023-02-23T04:00:38;94759.81;;;4.40;100.00
20620;BME280;10469;42.720;23.252;2023-02-23T04:03:25;94763.31;;;4.47;100.00
20620;BME280;10469;42.720;23.252;2023-02-23T04:06:12;94765.94;;;4.40;100.00
20620;BME280;10469;42.720;23.252;2023-02-23T04:09:00;94763.25;;;4.20;100.00
20620;BME280;10469;42.720;23.252;2023-02-23T04:11:53;94751.19;;;4.18;100.00
20620;BME280;10469;42.720;23.252;2023-02-23T04:14:44;94762.88;;;4.23;100.00
20620;BME280;10469;42.720;23.252;2023-02-23T04:17:14;94758.72;;;4.14;100.00
20620;BME280;10469;42.720;23.252;2023-02-23T04:19:51;94755.50;;;4.25;100.00
20620;BME280;10469;42.720;23.252;2023-02-23T04:22:17;94765.88;;;4.14;100.00
20620;BME280;10469;42.720;23.252;2023-02-23T04:24:43;94769.41;;;4.27;100.00
20620;BME280;10469;42.720;23.252;2023-02-23T04:27:11;94742.44;;;4.24;100.00
20620;BME280;10469;42.720;23.252;2023-02-23T04:29:36;94760.25;;;4.37;100.00
20620;BME280;10469;42.720;23.252;2023-02-23T04:32:03;94758.81;;;4.41;100.00
20620;BME280;10469;42.720;23.252;2023-02-23T04:34:28;94764.75;;;4.43;100.00
20620;BME280;10469;42.720;23.252;2023-02-23T04:36:53;94767.19;;;4.44;100.00
20620;BME280;10469;42.720;23.252;2023-02-23T04:39:19;94756.78;;;4.56;100.00
20620;BME280;10469;42.720;23.252;2023-02-23T04:41:44;94759.63;;;4.41;100.00
20620;BME280;10469;42.720;23.252;2023-02-23T04:44:10;94762.44;;;4.20;100.00
20620;BME280;10469;42.720;23.252;2023-02-23T04:46:35;94766.72;;;4.21;100.00
20620;BME280;10469;42.720;23.252;2023-02-23T04:49:01;94754.09;;;4.30;100.00
20620;BME280;10469;42.720;23.252;2023-02-23T04:51:26;94763.28;;;4.34;100.00
20620;BME280;10469;42.720;23.252;2023-02-23T04:53:56;94761.16;;;4.02;100.00
20620;BME280;10469;42.720;23.252;2023-02-23T04:56:22;94765.47;;;4.10;100.00
20620;BME280;10469;42.720;23.252;2023-02-23T04:58:47;94758.94;;;4.13;100.00
20620;BME280;10469;42.720;23.252;2023-02-23T05:01:13;94769.38;;;4.21;100.00
20620;BME280;10469;42.720;23.252;2023-02-23T05:03:39;94765.06;;;4.13;100.00
20620;BME280;10469;42.720;23.252;2023-02-23T05:06:04;94764.63;;;4.10;100.00
20620;BME280;10469;42.720;23.252;2023-02-23T05:08:30;94752.91;;;3.84;100.00
20620;BME280;10469;42.720;23.252;2023-02-23T05:10:55;94768.16;;;3.75;100.00
20620;BME280;10469;42.720;23.252;2023-02-23T05:13:21;94770.13;;;4.01;100.00
20620;BME280;10469;42.720;23.252;2023-02-23T05:15:47;94752.56;;;3.94;100.00
20620;BME280;10469;42.720;23.252;2023-02-23T05:18:12;94752.94;;;3.91;100.00
20620;BME280;10469;42.720;23.252;2023-02-23T05:20:41;94769.00;;;4.24;100.00
20620;BME280;10469;42.720;23.252;2023-02-23T05:23:09;94777.00;;;4.37;100.00
20620;BME280;10469;42.720;23.252;2023-02-23T05:25:37;94773.97;;;4.53;100.00
20620;BME280;10469;42.720;23.252;2023-02-23T05:28:03;94758.44;;;4.50;100.00
20620;BME280;10469;42.720;23.252;2023-02-23T05:30:29;94776.03;;;4.71;100.00
20620;BME280;10469;42.720;23.252;2023-02-23T05:32:54;94776.44;;;4.95;100.00
20620;BME280;10469;42.720;23.252;2023-02-23T05:35:19;94786.25;;;4.88;100.00
20620;BME280;10469;42.720;23.252;2023-02-23T05:37:45;94772.56;;;4.77;100.00
20620;BME280;10469;42.720;23.252;2023-02-23T05:40:11;94791.94;;;4.58;100.00
20620;BME280;10469;42.720;23.252;2023-02-23T05:42:38;94779.69;;;4.70;100.00
20620;BME280;10469;42.720;23.252;2023-02-23T05:45:04;94798.34;;;4.97;100.00
20620;BME280;10469;42.720;23.252;2023-02-23T05:47:31;94791.13;;;4.64;100.00
20620;BME280;10469;42.720;23.252;2023-02-23T05:49:56;94796.69;;;4.96;100.00
20620;BME280;10469;42.720;23.252;2023-02-23T05:52:22;94784.94;;;5.76;100.00
20620;BME280;10469;42.720;23.252;2023-02-23T05:54:49;94809.50;;;5.92;100.00
20620;BME280;10469;42.720;23.252;2023-02-23T05:57:14;94775.63;;;8.37;100.00
20620;BME280;10469;42.720;23.252;2023-02-23T05:59:40;94801.16;;;8.82;100.00
20620;BME280;10469;42.720;23.252;2023-02-23T06:02:06;94796.31;;;9.67;100.00
20620;BME280;10469;42.720;23.252;2023-02-23T06:04:31;94799.69;;;9.51;100.00
20620;BME280;10469;42.720;23.252;2023-02-23T06:06:57;94794.47;;;10.84;100.00
20620;BME280;10469;42.720;23.252;2023-02-23T06:09:23;94795.06;;;12.20;100.00
20620;BME280;10469;42.720;23.252;2023-02-23T06:11:49;94802.50;;;12.13;100.00
20620;BME280;10469;42.720;23.252;2023-02-23T06:14:14;94809.41;;;12.92;96.91
20620;BME280;10469;42.720;23.252;2023-02-23T06:16:40;94818.09;;;10.98;100.00
20620;BME280;10469;42.720;23.252;2023-02-23T06:19:09;94807.25;;;12.06;100.00
20620;BME280;10469;42.720;23.252;2023-02-23T06:21:35;94809.47;;;14.25;87.02
20620;BME280;10469;42.720;23.252;2023-02-23T06:24:00;94812.56;;;11.84;90.24
20620;BME280;10469;42.720;23.252;2023-02-23T06:26:27;94804.06;;;13.83;85.53
20620;BME280;10469;42.720;23.252;2023-02-23T06:28:53;94807.41;;;14.43;82.33
20620;BME280;10469;42.720;23.252;2023-02-23T06:31:19;94796.88;;;16.52;78.39
20620;BME280;10469;42.720;23.252;2023-02-23T06:33:44;94806.69;;;16.33;74.59
20620;BME280;10469;42.720;23.252;2023-02-23T06:36:10;94816.03;;;12.18;88.84
20620;BME280;10469;42.720;23.252;2023-02-23T06:38:35;94817.47;;;14.10;81.41
20620;BME280;10469;42.720;23.252;2023-02-23T06:41:06;94821.88;;;13.84;83.52
20620;BME280;10469;42.720;23.252;2023-02-23T06:43:33;94825.00;;;11.90;89.27
20620;BME280;10469;42.720;23.252;2023-02-23T06:45:58;94827.69;;;12.46;88.47
20620;BME280;10469;42.720;23.252;2023-02-23T06:48:24;94827.28;;;11.98;95.57
20620;BME280;10469;42.720;23.252;2023-02-23T06:50:49;94824.25;;;13.80;86.28
20620;BME280;10469;42.720;23.252;2023-02-23T06:53:15;94810.47;;;13.77;84.57
20620;BME280;10469;42.720;23.252;2023-02-23T06:55:40;94827.28;;;11.02;100.00
20620;BME280;10469;42.720;23.252;2023-02-23T06:58:05;94825.06;;;12.51;96.57
20620;BME280;10469;42.720;23.252;2023-02-23T07:00:32;94822.78;;;13.95;83.93
20620;BME280;10469;42.720;23.252;2023-02-23T07:02:57;94821.69;;;13.64;90.67
20620;BME280;10469;42.720;23.252;2023-02-23T07:05:24;94827.91;;;14.01;83.82
20620;BME280;10469;42.720;23.252;2023-02-23T07:07:50;94831.06;;;13.29;87.79
20620;BME280;10469;42.720;23.252;2023-02-23T07:10:16;94818.19;;;13.09;87.96
20620;BME280;10469;42.720;23.252;2023-02-23T07:12:43;94821.75;;;12.88;90.13
20620;BME280;10469;42.720;23.252;2023-02-23T07:15:09;94829.22;;;13.94;85.04
20620;BME280;10469;42.720;23.252;2023-02-23T07:17:35;94824.75;;;13.18;88.23
20620;BME280;10469;42.720;23.252;2023-02-23T07:20:01;94813.59;;;14.91;82.16
20620;BME280;10469;42.720;23.252;2023-02-23T07:22:27;94822.31;;;14.08;83.81
20620;BME280;10469;42.720;23.252;2023-02-23T07:24:57;94816.88;;;15.08;78.01
20620;BME280;10469;42.720;23.252;2023-02-23T07:27:23;94812.50;;;14.87;76.70
20620;BME280;10469;42.720;23.252;2023-02-23T07:29:49;94820.00;;;13.90;83.06
20620;BME280;10469;42.720;23.252;2023-02-23T07:32:14;94816.53;;;14.31;81.55
20620;BME280;10469;42.720;23.252;2023-02-23T07:34:40;94800.03;;;14.75;77.35
20620;BME280;10469;42.720;23.252;2023-02-23T07:37:05;94805.50;;;14.96;76.73
20620;BME280;10469;42.720;23.252;2023-02-23T07:39:30;94801.44;;;16.67;68.71
20620;BME280;10469;42.720;23.252;2023-02-23T07:41:56;94808.56;;;14.52;74.00
20620;BME280;10469;42.720;23.252;2023-02-23T07:44:22;94811.56;;;14.61;76.62
20620;BME280;10469;42.720;23.252;2023-02-23T07:46:47;94800.69;;;17.16;69.68
20620;BME280;10469;42.720;23.252;2023-02-23T07:49:13;94799.00;;;16.60;67.19
20620;BME280;10469;42.720;23.252;2023-02-23T07:51:39;94795.13;;;20.05;53.45
20620;BME280;10469;42.720;23.252;2023-02-23T07:54:05;94785.44;;;18.03;57.23
20620;BME280;10469;42.720;23.252;2023-02-23T07:56:31;94796.66;;;17.92;58.41
20620;BME280;10469;42.720;23.252;2023-02-23T07:58:57;94804.28;;;16.11;61.97
20620;BME280;10469;42.720;23.252;2023-02-23T08:01:23;94796.88;;;17.61;59.72
20620;BME280;10469;42.720;23.252;2023-02-23T08:03:49;94799.63;;;16.42;61.66
20620;BME280;10469;42.720;23.252;2023-02-23T08:06:16;94802.34;;;15.24;66.79
20620;BME280;10469;42.720;23.252;2023-02-23T08:08:41;94803.94;;;17.57;60.79
20620;BME280;10469;42.720;23.252;2023-02-23T08:11:07;94787.00;;;18.39;53.72
20620;BME280;10469;42.720;23.252;2023-02-23T08:13:33;94793.94;;;17.13;57.64
20620;BME280;10469;42.720;23.252;2023-02-23T08:15:58;94797.13;;;19.05;53.75
20620;BME280;10469;42.720;23.252;2023-02-23T08:18:24;94795.50;;;18.56;53.79
20620;BME280;10469;42.720;23.252;2023-02-23T08:20:50;94794.25;;;17.07;56.95
20620;BME280;10469;42.720;23.252;2023-02-23T08:23:21;94805.19;;;16.86;59.42
20620;BME280;10469;42.720;23.252;2023-02-23T08:25:46;94782.81;;;19.18;54.10
20620;BME280;10469;42.720;23.252;2023-02-23T08:28:12;94796.13;;;18.48;54.60
20620;BME280;10469;42.720;23.252;2023-02-23T08:30:37;94786.16;;;17.01;55.92
20620;BME280;10469;42.720;23.252;2023-02-23T08:33:03;94794.06;;;18.11;55.85
20620;BME280;10469;42.720;23.252;2023-02-23T08:35:29;94789.50;;;18.59;54.77
20620;BME280;10469;42.720;23.252;2023-02-23T08:37:56;94794.41;;;18.57;54.15
20620;BME280;10469;42.720;23.252;2023-02-23T08:40:22;94790.16;;;20.26;49.12
20620;BME280;10469;42.720;23.252;2023-02-23T08:42:47;94789.31;;;21.63;46.96
20620;BME280;10469;42.720;23.252;2023-02-23T08:45:13;94786.44;;;18.66;49.45
20620;BME280;10469;42.720;23.252;2023-02-23T08:47:39;94794.00;;;18.45;51.92
20620;BME280;10469;42.720;23.252;2023-02-23T08:50:05;94791.06;;;18.89;49.46
20620;BME280;10469;42.720;23.252;2023-02-23T08:52:31;94792.16;;;19.31;50.53
20620;BME280;10469;42.720;23.252;2023-02-23T08:54:56;94789.72;;;19.29;51.67
20620;BME280;10469;42.720;23.252;2023-02-23T08:57:22;94786.84;;;20.43;48.39
20620;BME280;10469;42.720;23.252;2023-02-23T08:59:47;94778.69;;;20.98;45.35
20620;BME280;10469;42.720;23.252;2023-02-23T09:02:13;94782.41;;;21.43;44.13
20620;BME280;10469;42.720;23.252;2023-02-23T09:04:40;94782.47;;;22.11;41.69
20620;BME280;10469;42.720;23.252;2023-02-23T09:07:15;94782.22;;;21.40;43.94
20620;BME280;10469;42.720;23.252;2023-02-23T09:09:41;94786.22;;;21.78;41.39
20620;BME280;10469;42.720;23.252;2023-02-23T09:12:06;94773.38;;;20.79;42.78
20620;BME280;10469;42.720;23.252;2023-02-23T09:14:32;94779.38;;;17.83;48.77
20620;BME280;10469;42.720;23.252;2023-02-23T09:16:57;94764.69;;;19.14;47.54
20620;BME280;10469;42.720;23.252;2023-02-23T09:19:24;94782.84;;;18.46;48.90
20620;BME280;10469;42.720;23.252;2023-02-23T09:21:50;94782.78;;;18.51;50.83
20620;BME280;10469;42.720;23.252;2023-02-23T09:24:15;94776.50;;;18.32;50.41
20620;BME280;10469;42.720;23.252;2023-02-23T09:26:42;94769.66;;;20.28;46.66
20620;BME280;10469;42.720;23.252;2023-02-23T09:29:08;94780.28;;;19.65;48.00
20620;BME280;10469;42.720;23.252;2023-02-23T09:31:34;94785.88;;;18.93;47.64
20620;BME280;10469;42.720;23.252;2023-02-23T09:33:59;94786.72;;;19.50;48.59
20620;BME280;10469;42.720;23.252;2023-02-23T09:36:26;94777.31;;;20.73;45.48
20620;BME280;10469;42.720;23.252;2023-02-23T09:38:53;94775.44;;;22.81;40.94
20620;BME280;10469;42.720;23.252;2023-02-23T09:44:56;94761.19;;;23.01;38.69
20620;BME280;10469;42.720;23.252;2023-02-23T09:47:29;94762.84;;;22.09;39.98
20620;BME280;10469;42.720;23.252;2023-02-23T09:49:58;94766.22;;;19.39;44.68
20620;BME280;10469;42.720;23.252;2023-02-23T09:52:41;94769.25;;;21.82;42.32
20620;BME280;10469;42.720;23.252;2023-02-23T09:55:12;94769.63;;;23.31;39.32
20620;BME280;10469;42.720;23.252;2023-02-23T09:57:42;94756.00;;;26.16;34.50
20620;BME280;10469;42.720;23.252;2023-02-23T10:00:22;94765.34;;;25.40;34.51
20620;BME280;10469;42.720;23.252;2023-02-23T10:03:07;94755.94;;;21.89;38.35
20620;BME280;10469;42.720;23.252;2023-02-23T10:05:39;94762.16;;;20.07;42.32
20620;BME280;10469;42.720;23.252;2023-02-23T10:08:22;94770.34;;;19.17;45.56
20620;BME280;10469;42.720;23.252;2023-02-23T10:16:32;94748.03;;;24.42;37.57
20620;BME280;10469;42.720;23.252;2023-02-23T10:19:08;94727.09;;;25.97;33.59
20620;BME280;10469;42.720;23.252;2023-02-23T10:21:42;94742.53;;;25.48;34.42
20620;BME280;10469;42.720;23.252;2023-02-23T10:24:29;94736.44;;;24.45;35.09
20620;BME280;10469;42.720;23.252;2023-02-23T10:29:36;94737.47;;;23.53;35.55
20620;BME280;10469;42.720;23.252;2023-02-23T10:32:11;94740.31;;;22.25;37.32
20620;BME280;10469;42.720;23.252;2023-02-23T10:34:40;94732.63;;;21.60;38.42
20620;BME280;10469;42.720;23.252;2023-02-23T10:37:10;94734.72;;;21.41;39.19
20620;BME280;10469;42.720;23.252;2023-02-23T10:39:39;94727.63;;;23.18;36.80
20620;BME280;10469;42.720;23.252;2023-02-23T10:42:06;94720.97;;;21.91;38.23
20620;BME280;10469;42.720;23.252;2023-02-23T10:44:36;94714.31;;;22.76;36.96
20620;BME280;10469;42.720;23.252;2023-02-23T10:47:07;94713.13;;;24.04;35.33
20620;BME280;10469;42.720;23.252;2023-02-23T10:49:55;94707.81;;;24.63;34.06
20620;BME280;10469;42.720;23.252;2023-02-23T10:54:59;94702.34;;;24.93;34.61
20620;BME280;10469;42.720;23.252;2023-02-23T10:57:37;94701.09;;;23.96;34.14
20620;BME280;10469;42.720;23.252;2023-02-23T11:00:33;94688.72;;;25.68;33.13
20620;BME280;10469;42.720;23.252;2023-02-23T11:03:01;94681.94;;;26.65;31.09
20620;BME280;10469;42.720;23.252;2023-02-23T11:05:44;94678.38;;;27.94;29.23
20620;BME280;10469;42.720;23.252;2023-02-23T11:13:45;94683.41;;;22.59;35.90
20620;BME280;10469;42.720;23.252;2023-02-23T11:16:14;94679.06;;;24.40;33.85
20620;BME280;10469;42.720;23.252;2023-02-23T11:18:50;94678.00;;;24.83;33.34
20620;BME280;10469;42.720;23.252;2023-02-23T11:21:34;94676.63;;;24.38;33.47
20620;BME280;10469;42.720;23.252;2023-02-23T11:24:24;94654.53;;;26.44;31.67
20620;BME280;10469;42.720;23.252;2023-02-23T11:26:53;94643.56;;;26.11;30.98
20620;BME280;10469;42.720;23.252;2023-02-23T11:29:43;94656.44;;;25.32;32.19
20620;BME280;10469;42.720;23.252;2023-02-23T11:34:38;94652.25;;;24.45;32.83
20620;BME280;10469;42.720;23.252;2023-02-23T11:37:18;94659.91;;;24.22;33.57
20620;BME280;10469;42.720;23.252;2023-02-23T11:39:55;94657.38;;;22.78;35.31
20620;BME280;10469;42.720;23.252;2023-02-23T11:42:27;94644.50;;;22.70;36.43
20620;BME280;10469;42.720;23.252;2023-02-23T11:45:16;94644.44;;;23.53;34.57
20620;BME280;10469;42.720;23.252;2023-02-23T11:47:54;94645.41;;;23.23;35.63
20620;BME280;10469;42.720;23.252;2023-02-23T11:50:24;94650.53;;;22.33;36.00
20620;BME280;10469;42.720;23.252;2023-02-23T11:52:55;94612.09;;;23.29;35.31
20620;BME280;10469;42.720;23.252;2023-02-23T11:55:22;94644.09;;;23.55;34.69
20620;BME280;10469;42.720;23.252;2023-02-23T11:57:50;94636.38;;;23.22;34.98
20620;BME280;10469;42.720;23.252;2023-02-23T12:00:23;94643.25;;;22.19;36.53
20620;BME280;10469;42.720;23.252;2023-02-23T12:02:56;94623.16;;;21.93;36.81
20620;BME280;10469;42.720;23.252;2023-02-23T12:05:25;94639.28;;;23.09;35.75
20620;BME280;10469;42.720;23.252;2023-02-23T12:08:15;94636.44;;;22.48;36.02
20620;BME280;10469;42.720;23.252;2023-02-23T12:10:50;94642.00;;;23.09;35.88
20620;BME280;10469;42.720;23.252;2023-02-23T12:19:08;94628.00;;;21.96;36.93
20620;BME280;10469;42.720;23.252;2023-02-23T12:21:42;94622.56;;;21.96;36.85
20620;BME280;10469;42.720;23.252;2023-02-23T12:29:47;94631.09;;;19.20;42.18
20620;BME280;10469;42.720;23.252;2023-02-23T12:32:20;94614.59;;;19.49;41.52
20620;BME280;10469;42.720;23.252;2023-02-23T12:37:44;94621.66;;;18.99;43.21
20620;BME280;10469;42.720;23.252;2023-02-23T12:40:20;94629.09;;;20.05;42.04
20620;BME280;10469;42.720;23.252;2023-02-23T12:43:06;94619.53;;;20.21;40.96
20620;BME280;10469;42.720;23.252;2023-02-23T12:45:48;94628.38;;;19.86;41.63
20620;BME280;10469;42.720;23.252;2023-02-23T12:48:40;94618.31;;;20.00;40.78
20620;BME280;10469;42.720;23.252;2023-02-23T12:53:54;94624.72;;;19.63;41.76
20620;BME280;10469;42.720;23.252;2023-02-23T13:01:56;94608.25;;;19.54;42.22
20620;BME280;10469;42.720;23.252;2023-02-23T13:07:21;94615.88;;;19.05;43.67
20620;BME280;10469;42.720;23.252;2023-02-23T13:20:44;94604.59;;;17.65;46.03
20620;BME280;10469;42.720;23.252;2023-02-23T13:25:48;94613.06;;;18.35;45.16
20620;BME280;10469;42.720;23.252;2023-02-23T13:28:45;94598.38;;;18.36;45.27
20620;BME280;10469;42.720;23.252;2023-02-23T13:31:21;94593.81;;;17.89;46.34
20620;BME280;10469;42.720;23.252;2023-02-23T13:33:48;94602.41;;;18.39;45.78
20620;BME280;10469;42.720;23.252;2023-02-23T13:36:14;94596.59;;;17.84;47.10
20620;BME280;10469;42.720;23.252;2023-02-23T13:41:34;94615.44;;;17.41;49.08
20620;BME280;10469;42.720;23.252;2023-02-23T13:44:31;94608.38;;;17.40;49.41
20620;BME280;10469;42.720;23.252;2023-02-23T13:49:54;94612.84;;;17.25;50.12
20620;BME280;10469;42.720;23.252;2023-02-23T13:52:38;94596.19;;;17.08;50.66
20620;BME280;10469;42.720;23.252;2023-02-23T13:57:50;94607.78;;;17.19;50.20
20620;BME280;10469;42.720;23.252;2023-02-23T14:00:18;94607.88;;;17.38;50.60
20620;BME280;10469;42.720;23.252;2023-02-23T14:02:44;94611.63;;;17.42;50.10
20620;BME280;10469;42.720;23.252;2023-02-23T14:05:22;94605.56;;;17.21;50.69
20620;BME280;10469;42.720;23.252;2023-02-23T14:07:58;94604.97;;;17.29;50.40
20620;BME280;10469;42.720;23.252;2023-02-23T14:10:46;94588.38;;;17.07;50.71
20620;BME280;10469;42.720;23.252;2023-02-23T14:25:52;94605.47;;;17.02;51.33
20620;BME280;10469;42.720;23.252;2023-02-23T14:28:35;94576.41;;;16.78;53.80
20620;BME280;10469;42.720;23.252;2023-02-23T14:33:49;94602.94;;;15.47;70.67
20620;BME280;10469;42.720;23.252;2023-02-23T14:38:52;94605.66;;;15.37;78.37
20620;BME280;10469;42.720;23.252;2023-02-23T14:41:52;94611.59;;;15.39;79.93
20620;BME280;10469;42.720;23.252;2023-02-23T14:44:29;94626.19;;;15.32;82.10
20620;BME280;10469;42.720;23.252;2023-02-23T14:49:26;94610.00;;;14.97;85.34
20620;BME280;10469;42.720;23.252;2023-02-23T14:51:57;94615.41;;;14.97;85.56
20620;BME280;10469;42.720;23.252;2023-02-23T14:54:32;94615.69;;;14.85;87.71
20620;BME280;10469;42.720;23.252;2023-02-23T14:57:01;94593.53;;;14.58;90.22
20620;BME280;10469;42.720;23.252;2023-02-23T14:59:38;94587.81;;;14.34;92.42
20620;BME280;10469;42.720;23.252;2023-02-23T15:02:09;94624.53;;;14.50;93.26
20620;BME280;10469;42.720;23.252;2023-02-23T15:04:36;94603.16;;;14.33;94.27
20620;BME280;10469;42.720;23.252;2023-02-23T15:07:14;94602.34;;;14.32;95.26
20620;BME280;10469;42.720;23.252;2023-02-23T15:09:43;94609.84;;;14.10;97.29
20620;BME280;10469;42.720;23.252;2023-02-23T15:12:26;94614.94;;;13.96;99.02
20620;BME280;10469;42.720;23.252;2023-02-23T15:14:57;94628.13;;;13.98;98.95
20620;BME280;10469;42.720;23.252;2023-02-23T15:17:25;94622.00;;;14.08;97.10
20620;BME280;10469;42.720;23.252;2023-02-23T15:20:00;94635.72;;;14.11;91.73
20620;BME280;10469;42.720;23.252;2023-02-23T15:22:31;94632.50;;;14.14;90.86
20620;BME280;10469;42.720;23.252;2023-02-23T15:25:02;94642.75;;;14.12;90.26
20620;BME280;10469;42.720;23.252;2023-02-23T15:27:39;94648.88;;;13.97;90.73